sensor_id;sensor_type;location;lat;lon;timestamp;temperature;humidity
14908;DHT22;7545;52.092;7.006;2022-09-28T00:00:07;10.70;99.90
14908;DHT22;7545;52.092;7.006;2022-09-28T00:02:33;10.70;99.90
14908;DHT22;7545;52.092;7.006;2022-09-28T00:05:00;10.70;99.90
14908;DHT22;7545;52.092;7.006;2022-09-28T00:07:27;10.70;99.90
14908;DHT22;7545;52.092;7.006;2022-09-28T00:09:53;10.70;99.90
14908;DHT22;7545;52.092;7.006;2022-09-28T00:12:19;10.70;99.90
14908;DHT22;7545;52.092;7.006;2022-09-28T00:14:46;10.70;99.90
14908;DHT22;7545;52.092;7.006;2022-09-28T00:17:11;10.70;99.90
14908;DHT22;7545;52.092;7.006;2022-09-28T00:19:38;10.70;99.90
14908;DHT22;7545;52.092;7.006;2022-09-28T00:22:05;10.70;99.90
14908;DHT22;7545;52.092;7.006;2022-09-28T00:24:31;10.60;99.90
14908;DHT22;7545;52.092;7.006;2022-09-28T00:26:57;10.70;99.90
14908;DHT22;7545;52.092;7.006;2022-09-28T00:29:33;10.60;99.90
14908;DHT22;7545;52.092;7.006;2022-09-28T00:32:05;10.60;99.90
14908;DHT22;7545;52.092;7.006;2022-09-28T00:34:33;10.60;99.90
14908;DHT22;7545;52.092;7.006;2022-09-28T00:37:00;10.60;99.90
14908;DHT22;7545;52.092;7.006;2022-09-28T00:39:26;10.60;99.90
14908;DHT22;7545;52.092;7.006;2022-09-28T00:41:52;10.60;99.90
14908;DHT22;7545;52.092;7.006;2022-09-28T00:46:49;10.50;99.90
14908;DHT22;7545;52.092;7.006;2022-09-28T00:49:17;10.50;99.90
14908;DHT22;7545;52.092;7.006;2022-09-28T00:51:46;10.60;99.90
14908;DHT22;7545;52.092;7.006;2022-09-28T00:54:14;10.50;99.90
14908;DHT22;7545;52.092;7.006;2022-09-28T00:56:45;10.50;99.90
14908;DHT22;7545;52.092;7.006;2022-09-28T00:59:12;10.50;99.90
14908;DHT22;7545;52.092;7.006;2022-09-28T01:01:38;10.60;99.90
14908;DHT22;7545;52.092;7.006;2022-09-28T01:04:05;10.50;99.90
14908;DHT22;7545;52.092;7.006;2022-09-28T01:06:33;10.50;99.90
14908;DHT22;7545;52.092;7.006;2022-09-28T01:09:06;10.50;99.90
14908;DHT22;7545;52.092;7.006;2022-09-28T01:11:36;10.50;99.90
14908;DHT22;7545;52.092;7.006;2022-09-28T01:14:02;10.50;99.90
14908;DHT22;7545;52.092;7.006;2022-09-28T01:27:27;10.50;99.90
14908;DHT22;7545;52.092;7.006;2022-09-28T01:30:04;10.40;99.90
14908;DHT22;7545;52.092;7.006;2022-09-28T01:35:43;10.40;99.90
14908;DHT22;7545;52.092;7.006;2022-09-28T01:38:18;10.40;99.90
14908;DHT22;7545;52.092;7.006;2022-09-28T01:40:45;10.40;99.90
14908;DHT22;7545;52.092;7.006;2022-09-28T01:43:19;10.40;99.90
14908;DHT22;7545;52.092;7.006;2022-09-28T01:46:35;10.40;99.90
14908;DHT22;7545;52.092;7.006;2022-09-28T01:48:55;10.40;99.90
14908;DHT22;7545;52.092;7.006;2022-09-28T01:51:33;10.40;99.90
14908;DHT22;7545;52.092;7.006;2022-09-28T01:54:12;10.40;99.90
14908;DHT22;7545;52.092;7.006;2022-09-28T01:56:50;10.40;99.90
14908;DHT22;7545;52.092;7.006;2022-09-28T01:59:22;10.30;99.90
14908;DHT22;7545;52.092;7.006;2022-09-28T02:01:56;10.30;99.90
14908;DHT22;7545;52.092;7.006;2022-09-28T02:04:48;10.30;99.90
14908;DHT22;7545;52.092;7.006;2022-09-28T02:07:37;10.40;99.90
14908;DHT22;7545;52.092;7.006;2022-09-28T02:10:09;10.30;99.90
14908;DHT22;7545;52.092;7.006;2022-09-28T02:12:51;10.40;99.90
14908;DHT22;7545;52.092;7.006;2022-09-28T02:15:19;10.30;99.90
14908;DHT22;7545;52.092;7.006;2022-09-28T02:17:46;10.40;99.90
14908;DHT22;7545;52.092;7.006;2022-09-28T02:20:14;10.40;99.90
14908;DHT22;7545;52.092;7.006;2022-09-28T02:22:47;10.30;99.90
14908;DHT22;7545;52.092;7.006;2022-09-28T02:25:42;10.30;99.90
14908;DHT22;7545;52.092;7.006;2022-09-28T02:28:10;10.30;99.90
14908;DHT22;7545;52.092;7.006;2022-09-28T02:30:41;10.30;99.90
14908;DHT22;7545;52.092;7.006;2022-09-28T02:33:27;10.30;99.90
14908;DHT22;7545;52.092;7.006;2022-09-28T02:35:54;10.30;99.90
14908;DHT22;7545;52.092;7.006;2022-09-28T02:38:19;10.30;99.90
14908;DHT22;7545;52.092;7.006;2022-09-28T02:52:23;10.30;99.90
14908;DHT22;7545;52.092;7.006;2022-09-28T03:00:18;10.30;99.90
14908;DHT22;7545;52.092;7.006;2022-09-28T03:03:00;10.30;99.90
14908;DHT22;7545;52.092;7.006;2022-09-28T03:11:04;10.30;99.90
14908;DHT22;7545;52.092;7.006;2022-09-28T03:13:32;10.30;99.90
14908;DHT22;7545;52.092;7.006;2022-09-28T03:16:15;10.30;99.90
14908;DHT22;7545;52.092;7.006;2022-09-28T03:18:41;10.20;99.90
14908;DHT22;7545;52.092;7.006;2022-09-28T03:21:09;10.30;99.90
14908;DHT22;7545;52.092;7.006;2022-09-28T03:23:35;10.30;99.90
14908;DHT22;7545;52.092;7.006;2022-09-28T03:26:02;10.30;99.90
14908;DHT22;7545;52.092;7.006;2022-09-28T03:28:28;10.20;99.90
14908;DHT22;7545;52.092;7.006;2022-09-28T03:30:54;10.30;99.90
14908;DHT22;7545;52.092;7.006;2022-09-28T03:33:20;10.30;99.90
14908;DHT22;7545;52.092;7.006;2022-09-28T03:35:50;10.20;99.90
14908;DHT22;7545;52.092;7.006;2022-09-28T03:38:16;10.30;99.90
14908;DHT22;7545;52.092;7.006;2022-09-28T03:40:43;10.30;99.90
14908;DHT22;7545;52.092;7.006;2022-09-28T03:43:08;10.30;99.90
14908;DHT22;7545;52.092;7.006;2022-09-28T03:45:34;10.20;99.90
14908;DHT22;7545;52.092;7.006;2022-09-28T03:48:00;10.20;99.90
14908;DHT22;7545;52.092;7.006;2022-09-28T03:50:25;10.20;99.90
14908;DHT22;7545;52.092;7.006;2022-09-28T03:52:51;10.20;99.90
14908;DHT22;7545;52.092;7.006;2022-09-28T03:55:16;10.20;99.90
14908;DHT22;7545;52.092;7.006;2022-09-28T03:57:42;10.20;99.90
14908;DHT22;7545;52.092;7.006;2022-09-28T04:00:08;10.20;99.90
14908;DHT22;7545;52.092;7.006;2022-09-28T04:02:34;10.20;99.90
14908;DHT22;7545;52.092;7.006;2022-09-28T04:05:00;10.20;99.90
14908;DHT22;7545;52.092;7.006;2022-09-28T04:07:26;10.20;99.90
14908;DHT22;7545;52.092;7.006;2022-09-28T04:09:51;10.20;99.90
14908;DHT22;7545;52.092;7.006;2022-09-28T04:12:17;10.20;99.90
14908;DHT22;7545;52.092;7.006;2022-09-28T04:14:42;10.20;99.90
14908;DHT22;7545;52.092;7.006;2022-09-28T04:17:08;10.20;99.90
14908;DHT22;7545;52.092;7.006;2022-09-28T04:19:34;10.20;99.90
14908;DHT22;7545;52.092;7.006;2022-09-28T04:22:00;10.20;99.90
14908;DHT22;7545;52.092;7.006;2022-09-28T04:24:26;10.20;99.90
14908;DHT22;7545;52.092;7.006;2022-09-28T04:26:51;10.20;99.90
14908;DHT22;7545;52.092;7.006;2022-09-28T04:29:37;10.20;99.90
14908;DHT22;7545;52.092;7.006;2022-09-28T04:32:04;10.10;99.90
14908;DHT22;7545;52.092;7.006;2022-09-28T04:34:30;10.10;99.90
14908;DHT22;7545;52.092;7.006;2022-09-28T04:36:56;10.10;99.90
14908;DHT22;7545;52.092;7.006;2022-09-28T04:39:21;10.10;99.90
14908;DHT22;7545;52.092;7.006;2022-09-28T04:41:47;10.20;99.90
14908;DHT22;7545;52.092;7.006;2022-09-28T04:44:13;10.20;99.90
14908;DHT22;7545;52.092;7.006;2022-09-28T04:46:39;10.10;99.90
14908;DHT22;7545;52.092;7.006;2022-09-28T04:49:04;10.20;99.90
14908;DHT22;7545;52.092;7.006;2022-09-28T04:51:31;10.20;99.90
14908;DHT22;7545;52.092;7.006;2022-09-28T04:53:57;10.20;99.90
14908;DHT22;7545;52.092;7.006;2022-09-28T04:56:22;10.10;99.90
14908;DHT22;7545;52.092;7.006;2022-09-28T04:58:48;10.10;99.90
14908;DHT22;7545;52.092;7.006;2022-09-28T05:01:15;10.20;99.90
14908;DHT22;7545;52.092;7.006;2022-09-28T05:03:42;10.10;99.90
14908;DHT22;7545;52.092;7.006;2022-09-28T05:06:08;10.10;99.90
14908;DHT22;7545;52.092;7.006;2022-09-28T05:08:36;10.20;99.90
14908;DHT22;7545;52.092;7.006;2022-09-28T05:11:04;10.10;99.90
14908;DHT22;7545;52.092;7.006;2022-09-28T05:13:31;10.10;99.90
14908;DHT22;7545;52.092;7.006;2022-09-28T05:15:58;10.00;99.90
14908;DHT22;7545;52.092;7.006;2022-09-28T05:18:24;10.00;99.90
14908;DHT22;7545;52.092;7.006;2022-09-28T05:20:50;10.00;99.90
14908;DHT22;7545;52.092;7.006;2022-09-28T05:23:16;10.00;99.90
14908;DHT22;7545;52.092;7.006;2022-09-28T05:25:42;10.00;99.90
14908;DHT22;7545;52.092;7.006;2022-09-28T05:28:08;10.00;99.90
14908;DHT22;7545;52.092;7.006;2022-09-28T05:30:34;10.00;99.90
14908;DHT22;7545;52.092;7.006;2022-09-28T05:33:01;10.00;99.90
14908;DHT22;7545;52.092;7.006;2022-09-28T05:35:27;10.00;99.90
14908;DHT22;7545;52.092;7.006;2022-09-28T05:37:54;10.00;99.90
14908;DHT22;7545;52.092;7.006;2022-09-28T05:40:20;10.00;99.90
14908;DHT22;7545;52.092;7.006;2022-09-28T05:42:45;10.00;99.90
14908;DHT22;7545;52.092;7.006;2022-09-28T05:45:11;9.90;99.90
14908;DHT22;7545;52.092;7.006;2022-09-28T05:47:42;9.90;99.90
14908;DHT22;7545;52.092;7.006;2022-09-28T05:50:09;10.00;99.90
14908;DHT22;7545;52.092;7.006;2022-09-28T05:52:37;10.00;99.90
14908;DHT22;7545;52.092;7.006;2022-09-28T05:55:03;10.00;99.90
14908;DHT22;7545;52.092;7.006;2022-09-28T05:57:29;10.00;99.90
14908;DHT22;7545;52.092;7.006;2022-09-28T05:59:55;10.00;99.90
14908;DHT22;7545;52.092;7.006;2022-09-28T06:02:20;10.00;99.90
14908;DHT22;7545;52.092;7.006;2022-09-28T06:04:46;10.00;99.90
14908;DHT22;7545;52.092;7.006;2022-09-28T06:07:14;9.90;99.90
14908;DHT22;7545;52.092;7.006;2022-09-28T06:09:39;9.90;99.90
14908;DHT22;7545;52.092;7.006;2022-09-28T06:12:05;10.00;99.90
14908;DHT22;7545;52.092;7.006;2022-09-28T06:14:31;10.00;99.90
14908;DHT22;7545;52.092;7.006;2022-09-28T06:16:56;10.00;99.90
14908;DHT22;7545;52.092;7.006;2022-09-28T06:19:22;10.00;99.90
14908;DHT22;7545;52.092;7.006;2022-09-28T06:21:47;10.00;99.90
14908;DHT22;7545;52.092;7.006;2022-09-28T06:24:13;10.00;99.90
14908;DHT22;7545;52.092;7.006;2022-09-28T06:26:39;10.00;99.90
14908;DHT22;7545;52.092;7.006;2022-09-28T06:29:04;10.00;99.90
14908;DHT22;7545;52.092;7.006;2022-09-28T06:31:30;9.90;99.90
14908;DHT22;7545;52.092;7.006;2022-09-28T06:33:56;10.00;99.90
14908;DHT22;7545;52.092;7.006;2022-09-28T06:36:22;9.90;99.90
14908;DHT22;7545;52.092;7.006;2022-09-28T06:38:48;10.00;99.90
14908;DHT22;7545;52.092;7.006;2022-09-28T06:41:14;10.00;99.90
14908;DHT22;7545;52.092;7.006;2022-09-28T06:43:40;10.00;99.90
14908;DHT22;7545;52.092;7.006;2022-09-28T06:46:07;10.00;99.90
14908;DHT22;7545;52.092;7.006;2022-09-28T06:48:33;10.00;99.90
14908;DHT22;7545;52.092;7.006;2022-09-28T06:51:00;10.00;99.90
14908;DHT22;7545;52.092;7.006;2022-09-28T06:53:26;10.00;99.90
14908;DHT22;7545;52.092;7.006;2022-09-28T06:55:53;10.00;99.90
14908;DHT22;7545;52.092;7.006;2022-09-28T06:58:20;10.10;99.90
14908;DHT22;7545;52.092;7.006;2022-09-28T07:00:47;10.10;99.90
14908;DHT22;7545;52.092;7.006;2022-09-28T07:03:15;10.00;99.90
14908;DHT22;7545;52.092;7.006;2022-09-28T07:05:43;10.00;99.90
14908;DHT22;7545;52.092;7.006;2022-09-28T07:08:09;10.00;99.90
14908;DHT22;7545;52.092;7.006;2022-09-28T07:10:40;10.10;99.90
14908;DHT22;7545;52.092;7.006;2022-09-28T07:13:06;10.10;99.90
14908;DHT22;7545;52.092;7.006;2022-09-28T07:15:32;10.10;99.90
14908;DHT22;7545;52.092;7.006;2022-09-28T07:17:59;10.10;99.90
14908;DHT22;7545;52.092;7.006;2022-09-28T07:20:25;10.10;99.90
14908;DHT22;7545;52.092;7.006;2022-09-28T07:22:55;10.10;99.90
14908;DHT22;7545;52.092;7.006;2022-09-28T07:25:21;10.10;99.90
14908;DHT22;7545;52.092;7.006;2022-09-28T07:27:48;10.20;99.90
14908;DHT22;7545;52.092;7.006;2022-09-28T07:30:14;10.20;99.90
14908;DHT22;7545;52.092;7.006;2022-09-28T07:32:40;10.20;99.90
14908;DHT22;7545;52.092;7.006;2022-09-28T07:35:05;10.30;99.90
14908;DHT22;7545;52.092;7.006;2022-09-28T07:37:34;10.30;99.90
14908;DHT22;7545;52.092;7.006;2022-09-28T07:40:02;10.30;99.90
14908;DHT22;7545;52.092;7.006;2022-09-28T07:42:46;10.30;99.90
14908;DHT22;7545;52.092;7.006;2022-09-28T07:45:11;10.40;99.90
14908;DHT22;7545;52.092;7.006;2022-09-28T07:47:37;10.40;99.90
14908;DHT22;7545;52.092;7.006;2022-09-28T07:50:03;10.40;99.90
14908;DHT22;7545;52.092;7.006;2022-09-28T07:52:28;10.40;99.90
14908;DHT22;7545;52.092;7.006;2022-09-28T07:54:54;10.50;99.90
14908;DHT22;7545;52.092;7.006;2022-09-28T07:57:21;10.50;99.90
14908;DHT22;7545;52.092;7.006;2022-09-28T07:59:48;10.50;99.90
14908;DHT22;7545;52.092;7.006;2022-09-28T08:02:15;10.50;99.90
14908;DHT22;7545;52.092;7.006;2022-09-28T08:04:42;10.60;99.90
14908;DHT22;7545;52.092;7.006;2022-09-28T08:07:09;10.60;99.90
14908;DHT22;7545;52.092;7.006;2022-09-28T08:09:35;10.60;99.90
14908;DHT22;7545;52.092;7.006;2022-09-28T08:12:01;10.60;99.90
14908;DHT22;7545;52.092;7.006;2022-09-28T08:14:29;10.70;99.90
14908;DHT22;7545;52.092;7.006;2022-09-28T08:16:58;10.60;99.90
14908;DHT22;7545;52.092;7.006;2022-09-28T08:19:24;10.60;99.90
14908;DHT22;7545;52.092;7.006;2022-09-28T08:21:50;10.70;99.90
14908;DHT22;7545;52.092;7.006;2022-09-28T08:24:16;10.80;99.90
14908;DHT22;7545;52.092;7.006;2022-09-28T08:26:43;10.70;99.90
14908;DHT22;7545;52.092;7.006;2022-09-28T08:29:09;10.80;99.90
14908;DHT22;7545;52.092;7.006;2022-09-28T08:31:34;10.90;99.90
14908;DHT22;7545;52.092;7.006;2022-09-28T08:34:00;10.90;99.90
14908;DHT22;7545;52.092;7.006;2022-09-28T08:36:26;11.00;99.90
14908;DHT22;7545;52.092;7.006;2022-09-28T08:38:53;11.10;99.90
14908;DHT22;7545;52.092;7.006;2022-09-28T08:44:31;11.10;99.90
14908;DHT22;7545;52.092;7.006;2022-09-28T08:47:06;11.10;99.90
14908;DHT22;7545;52.092;7.006;2022-09-28T08:49:54;11.20;99.90
14908;DHT22;7545;52.092;7.006;2022-09-28T08:52:33;11.30;99.90
14908;DHT22;7545;52.092;7.006;2022-09-28T08:55:19;11.30;99.90
14908;DHT22;7545;52.092;7.006;2022-09-28T08:58:02;11.30;99.90
14908;DHT22;7545;52.092;7.006;2022-09-28T09:00:50;11.30;99.90
14908;DHT22;7545;52.092;7.006;2022-09-28T09:03:36;11.30;99.90
14908;DHT22;7545;52.092;7.006;2022-09-28T09:15:32;11.40;99.90
14908;DHT22;7545;52.092;7.006;2022-09-28T09:20:57;11.40;99.90
14908;DHT22;7545;52.092;7.006;2022-09-28T09:25:56;11.50;99.90
14908;DHT22;7545;52.092;7.006;2022-09-28T09:28:34;11.60;99.90
14908;DHT22;7545;52.092;7.006;2022-09-28T09:34:13;11.60;99.90
14908;DHT22;7545;52.092;7.006;2022-09-28T09:48:16;11.90;99.90
14908;DHT22;7545;52.092;7.006;2022-09-28T09:50:45;12.00;99.90
14908;DHT22;7545;52.092;7.006;2022-09-28T09:53:26;12.00;99.90
14908;DHT22;7545;52.092;7.006;2022-09-28T09:55:58;12.10;99.90
14908;DHT22;7545;52.092;7.006;2022-09-28T09:58:42;12.20;99.90
14908;DHT22;7545;52.092;7.006;2022-09-28T10:01:13;12.20;99.90
14908;DHT22;7545;52.092;7.006;2022-09-28T10:03:42;12.30;99.90
14908;DHT22;7545;52.092;7.006;2022-09-28T10:06:16;12.30;99.90
14908;DHT22;7545;52.092;7.006;2022-09-28T10:08:47;12.30;99.90
14908;DHT22;7545;52.092;7.006;2022-09-28T10:11:17;12.30;99.90
14908;DHT22;7545;52.092;7.006;2022-09-28T10:13:47;12.40;99.90
14908;DHT22;7545;52.092;7.006;2022-09-28T10:16:16;12.40;99.90
14908;DHT22;7545;52.092;7.006;2022-09-28T10:18:42;12.50;99.90
14908;DHT22;7545;52.092;7.006;2022-09-28T10:21:16;12.60;99.90
14908;DHT22;7545;52.092;7.006;2022-09-28T10:23:43;12.70;99.90
14908;DHT22;7545;52.092;7.006;2022-09-28T10:26:14;12.70;99.90
14908;DHT22;7545;52.092;7.006;2022-09-28T10:31:41;12.80;99.90
14908;DHT22;7545;52.092;7.006;2022-09-28T10:34:09;12.80;99.90
14908;DHT22;7545;52.092;7.006;2022-09-28T10:36:55;12.80;99.90
14908;DHT22;7545;52.092;7.006;2022-09-28T10:42:02;12.80;99.90
14908;DHT22;7545;52.092;7.006;2022-09-28T10:44:31;12.90;99.90
14908;DHT22;7545;52.092;7.006;2022-09-28T10:47:02;12.90;99.90
14908;DHT22;7545;52.092;7.006;2022-09-28T10:49:41;12.90;99.90
14908;DHT22;7545;52.092;7.006;2022-09-28T10:54:55;12.90;99.90
14908;DHT22;7545;52.092;7.006;2022-09-28T10:57:35;12.90;99.90
14908;DHT22;7545;52.092;7.006;2022-09-28T11:00:03;12.90;99.90
14908;DHT22;7545;52.092;7.006;2022-09-28T11:02:34;12.80;99.90
14908;DHT22;7545;52.092;7.006;2022-09-28T11:05:03;12.80;99.90
14908;DHT22;7545;52.092;7.006;2022-09-28T11:07:31;12.80;99.90
14908;DHT22;7545;52.092;7.006;2022-09-28T11:09:58;12.80;99.90
14908;DHT22;7545;52.092;7.006;2022-09-28T11:12:27;12.90;99.90
14908;DHT22;7545;52.092;7.006;2022-09-28T11:15:03;12.90;99.90
14908;DHT22;7545;52.092;7.006;2022-09-28T11:17:31;12.90;99.90
14908;DHT22;7545;52.092;7.006;2022-09-28T11:22:50;13.00;99.90
14908;DHT22;7545;52.092;7.006;2022-09-28T11:28:03;13.00;99.90
14908;DHT22;7545;52.092;7.006;2022-09-28T11:30:52;13.10;99.90
14908;DHT22;7545;52.092;7.006;2022-09-28T11:33:29;13.10;99.90
14908;DHT22;7545;52.092;7.006;2022-09-28T11:38:57;13.10;99.90
14908;DHT22;7545;52.092;7.006;2022-09-28T11:44:25;13.10;99.90
14908;DHT22;7545;52.092;7.006;2022-09-28T11:51:56;13.10;99.90
14908;DHT22;7545;52.092;7.006;2022-09-28T11:57:03;13.20;99.90
14908;DHT22;7545;52.092;7.006;2022-09-28T11:59:30;13.30;99.90
14908;DHT22;7545;52.092;7.006;2022-09-28T12:02:35;13.30;99.90
14908;DHT22;7545;52.092;7.006;2022-09-28T12:05:11;13.30;99.90
14908;DHT22;7545;52.092;7.006;2022-09-28T12:07:43;13.30;99.90
14908;DHT22;7545;52.092;7.006;2022-09-28T12:10:13;13.40;99.90
14908;DHT22;7545;52.092;7.006;2022-09-28T12:12:56;13.40;99.90
14908;DHT22;7545;52.092;7.006;2022-09-28T12:15:29;13.40;99.90
14908;DHT22;7545;52.092;7.006;2022-09-28T12:18:16;13.50;99.90
14908;DHT22;7545;52.092;7.006;2022-09-28T12:20:48;13.50;99.90
14908;DHT22;7545;52.092;7.006;2022-09-28T12:23:24;13.50;99.90
14908;DHT22;7545;52.092;7.006;2022-09-28T12:26:04;13.60;99.90
14908;DHT22;7545;52.092;7.006;2022-09-28T12:28:39;13.60;99.90
14908;DHT22;7545;52.092;7.006;2022-09-28T12:33:55;13.90;99.90
14908;DHT22;7545;52.092;7.006;2022-09-28T12:50:05;14.20;99.90
14908;DHT22;7545;52.092;7.006;2022-09-28T12:55:51;14.40;99.90
14908;DHT22;7545;52.092;7.006;2022-09-28T13:01:15;14.40;99.90
14908;DHT22;7545;52.092;7.006;2022-09-28T13:06:58;14.60;99.90
14908;DHT22;7545;52.092;7.006;2022-09-28T13:09:26;14.60;99.90
14908;DHT22;7545;52.092;7.006;2022-09-28T13:12:01;14.60;99.90
14908;DHT22;7545;52.092;7.006;2022-09-28T13:17:41;14.70;99.90
14908;DHT22;7545;52.092;7.006;2022-09-28T13:20:29;14.70;99.90
14908;DHT22;7545;52.092;7.006;2022-09-28T13:23:15;14.70;99.90
14908;DHT22;7545;52.092;7.006;2022-09-28T13:25:51;14.70;99.90
14908;DHT22;7545;52.092;7.006;2022-09-28T13:28:21;14.70;99.90
14908;DHT22;7545;52.092;7.006;2022-09-28T13:30:48;14.60;99.90
14908;DHT22;7545;52.092;7.006;2022-09-28T13:33:20;14.60;99.90
14908;DHT22;7545;52.092;7.006;2022-09-28T13:35:47;14.50;99.90
14908;DHT22;7545;52.092;7.006;2022-09-28T13:51:50;14.30;99.90
14908;DHT22;7545;52.092;7.006;2022-09-28T14:02:29;14.20;99.90
14908;DHT22;7545;52.092;7.006;2022-09-28T14:05:02;14.30;99.90
14908;DHT22;7545;52.092;7.006;2022-09-28T14:10:21;14.30;99.90
14908;DHT22;7545;52.092;7.006;2022-09-28T14:12:50;14.30;99.90
14908;DHT22;7545;52.092;7.006;2022-09-28T14:18:11;14.30;99.90
14908;DHT22;7545;52.092;7.006;2022-09-28T14:20:40;14.40;99.90
14908;DHT22;7545;52.092;7.006;2022-09-28T14:26:19;14.40;99.90
14908;DHT22;7545;52.092;7.006;2022-09-28T14:31:44;14.50;99.90
14908;DHT22;7545;52.092;7.006;2022-09-28T14:36:54;14.60;99.90
14908;DHT22;7545;52.092;7.006;2022-09-28T14:39:43;14.60;99.90
14908;DHT22;7545;52.092;7.006;2022-09-28T14:42:27;14.60;99.90
14908;DHT22;7545;52.092;7.006;2022-09-28T14:47:43;14.50;99.90
14908;DHT22;7545;52.092;7.006;2022-09-28T14:50:24;14.50;99.90
14908;DHT22;7545;52.092;7.006;2022-09-28T14:53:12;14.40;99.90
14908;DHT22;7545;52.092;7.006;2022-09-28T14:55:45;14.40;99.90
14908;DHT22;7545;52.092;7.006;2022-09-28T14:58:20;14.30;99.90
14908;DHT22;7545;52.092;7.006;2022-09-28T15:00:49;14.30;99.90
14908;DHT22;7545;52.092;7.006;2022-09-28T15:03:17;14.30;99.90
14908;DHT22;7545;52.092;7.006;2022-09-28T15:05:47;14.30;99.90
14908;DHT22;7545;52.092;7.006;2022-09-28T15:08:14;14.30;99.90
14908;DHT22;7545;52.092;7.006;2022-09-28T15:10:45;14.30;99.90
14908;DHT22;7545;52.092;7.006;2022-09-28T15:13:24;14.20;99.90
14908;DHT22;7545;52.092;7.006;2022-09-28T15:15:54;14.20;99.90
14908;DHT22;7545;52.092;7.006;2022-09-28T15:19:31;14.20;99.90
14908;DHT22;7545;52.092;7.006;2022-09-28T15:21:34;14.20;99.90
14908;DHT22;7545;52.092;7.006;2022-09-28T15:24:00;14.10;99.90
14908;DHT22;7545;52.092;7.006;2022-09-28T15:26:31;14.20;99.90
14908;DHT22;7545;52.092;7.006;2022-09-28T15:28:57;14.10;99.90
14908;DHT22;7545;52.092;7.006;2022-09-28T15:31:25;14.10;99.90
14908;DHT22;7545;52.092;7.006;2022-09-28T15:33:51;14.10;99.90
14908;DHT22;7545;52.092;7.006;2022-09-28T15:36:41;14.10;99.90
14908;DHT22;7545;52.092;7.006;2022-09-28T15:39:28;14.10;99.90
14908;DHT22;7545;52.092;7.006;2022-09-28T15:41:55;14.10;99.90
14908;DHT22;7545;52.092;7.006;2022-09-28T15:44:33;14.10;99.90
14908;DHT22;7545;52.092;7.006;2022-09-28T15:47:09;14.00;99.90
14908;DHT22;7545;52.092;7.006;2022-09-28T15:49:44;14.00;99.90
14908;DHT22;7545;52.092;7.006;2022-09-28T15:53:03;14.00;99.90
14908;DHT22;7545;52.092;7.006;2022-09-28T15:55:34;13.90;99.90
14908;DHT22;7545;52.092;7.006;2022-09-28T16:00:40;13.80;99.90
14908;DHT22;7545;52.092;7.006;2022-09-28T16:14:16;13.60;99.90
14908;DHT22;7545;52.092;7.006;2022-09-28T16:16:47;13.60;99.90
14908;DHT22;7545;52.092;7.006;2022-09-28T16:21:50;13.50;99.90
14908;DHT22;7545;52.092;7.006;2022-09-28T16:24:27;13.50;99.90
14908;DHT22;7545;52.092;7.006;2022-09-28T16:27:00;13.40;99.90
14908;DHT22;7545;52.092;7.006;2022-09-28T16:29:36;13.40;99.90
14908;DHT22;7545;52.092;7.006;2022-09-28T16:32:37;13.40;99.90
14908;DHT22;7545;52.092;7.006;2022-09-28T16:37:37;13.40;99.90
14908;DHT22;7545;52.092;7.006;2022-09-28T16:40:08;13.40;99.90
14908;DHT22;7545;52.092;7.006;2022-09-28T16:42:34;13.40;99.90
14908;DHT22;7545;52.092;7.006;2022-09-28T16:45:00;13.40;99.90
14908;DHT22;7545;52.092;7.006;2022-09-28T16:47:29;13.30;99.90
14908;DHT22;7545;52.092;7.006;2022-09-28T16:49:59;13.30;99.90
14908;DHT22;7545;52.092;7.006;2022-09-28T16:52:25;13.30;99.90
14908;DHT22;7545;52.092;7.006;2022-09-28T16:55:12;13.30;99.90
14908;DHT22;7545;52.092;7.006;2022-09-28T16:57:45;13.30;99.90
14908;DHT22;7545;52.092;7.006;2022-09-28T17:02:44;13.30;99.90
14908;DHT22;7545;52.092;7.006;2022-09-28T17:05:11;13.30;99.90
14908;DHT22;7545;52.092;7.006;2022-09-28T17:07:38;13.20;99.90
14908;DHT22;7545;52.092;7.006;2022-09-28T17:10:42;13.20;99.90
14908;DHT22;7545;52.092;7.006;2022-09-28T17:13:09;13.20;99.90
14908;DHT22;7545;52.092;7.006;2022-09-28T17:15:40;13.20;99.90
14908;DHT22;7545;52.092;7.006;2022-09-28T17:18:08;13.10;99.90
14908;DHT22;7545;52.092;7.006;2022-09-28T17:20:35;13.10;99.90
14908;DHT22;7545;52.092;7.006;2022-09-28T17:23:01;13.00;99.90
14908;DHT22;7545;52.092;7.006;2022-09-28T17:25:27;13.00;99.90
14908;DHT22;7545;52.092;7.006;2022-09-28T17:27:55;13.00;99.90
14908;DHT22;7545;52.092;7.006;2022-09-28T17:30:21;12.90;99.90
14908;DHT22;7545;52.092;7.006;2022-09-28T17:32:47;12.90;99.90
14908;DHT22;7545;52.092;7.006;2022-09-28T17:35:14;12.90;99.90
14908;DHT22;7545;52.092;7.006;2022-09-28T17:37:40;12.80;99.90
14908;DHT22;7545;52.092;7.006;2022-09-28T17:40:26;12.80;99.90
14908;DHT22;7545;52.092;7.006;2022-09-28T17:42:53;12.80;99.90
14908;DHT22;7545;52.092;7.006;2022-09-28T17:45:24;12.70;99.90
14908;DHT22;7545;52.092;7.006;2022-09-28T17:47:54;12.70;99.90
14908;DHT22;7545;52.092;7.006;2022-09-28T17:50:23;12.60;99.90
14908;DHT22;7545;52.092;7.006;2022-09-28T17:52:50;12.60;99.90
14908;DHT22;7545;52.092;7.006;2022-09-28T17:55:25;12.50;99.90
14908;DHT22;7545;52.092;7.006;2022-09-28T17:57:54;12.50;99.90
14908;DHT22;7545;52.092;7.006;2022-09-28T18:00:20;12.50;99.90
14908;DHT22;7545;52.092;7.006;2022-09-28T18:02:47;12.40;99.90
14908;DHT22;7545;52.092;7.006;2022-09-28T18:05:13;12.40;99.90
14908;DHT22;7545;52.092;7.006;2022-09-28T18:07:43;12.40;99.90
14908;DHT22;7545;52.092;7.006;2022-09-28T18:10:15;12.40;99.90
14908;DHT22;7545;52.092;7.006;2022-09-28T18:12:41;12.40;99.90
14908;DHT22;7545;52.092;7.006;2022-09-28T18:15:08;12.40;99.90
14908;DHT22;7545;52.092;7.006;2022-09-28T18:17:34;12.30;99.90
14908;DHT22;7545;52.092;7.006;2022-09-28T18:20:00;12.20;99.90
14908;DHT22;7545;52.092;7.006;2022-09-28T18:22:26;12.20;99.90
14908;DHT22;7545;52.092;7.006;2022-09-28T18:24:51;12.20;99.90
14908;DHT22;7545;52.092;7.006;2022-09-28T18:27:17;12.20;99.90
14908;DHT22;7545;52.092;7.006;2022-09-28T18:29:43;12.20;99.90
14908;DHT22;7545;52.092;7.006;2022-09-28T18:32:08;12.10;99.90
14908;DHT22;7545;52.092;7.006;2022-09-28T18:34:36;12.20;99.90
14908;DHT22;7545;52.092;7.006;2022-09-28T18:37:02;12.10;99.90
14908;DHT22;7545;52.092;7.006;2022-09-28T18:39:28;12.10;99.90
14908;DHT22;7545;52.092;7.006;2022-09-28T18:41:54;12.20;99.90
14908;DHT22;7545;52.092;7.006;2022-09-28T18:44:20;12.10;99.90
14908;DHT22;7545;52.092;7.006;2022-09-28T18:46:46;12.10;99.90
14908;DHT22;7545;52.092;7.006;2022-09-28T18:49:12;12.10;99.90
14908;DHT22;7545;52.092;7.006;2022-09-28T18:51:37;12.10;99.90
14908;DHT22;7545;52.092;7.006;2022-09-28T18:54:03;12.10;99.90
14908;DHT22;7545;52.092;7.006;2022-09-28T18:56:33;12.10;99.90
14908;DHT22;7545;52.092;7.006;2022-09-28T18:59:01;12.10;99.90
14908;DHT22;7545;52.092;7.006;2022-09-28T19:01:27;12.00;99.90
14908;DHT22;7545;52.092;7.006;2022-09-28T19:03:52;12.00;99.90
14908;DHT22;7545;52.092;7.006;2022-09-28T19:06:18;12.00;99.90
14908;DHT22;7545;52.092;7.006;2022-09-28T19:08:51;11.90;99.90
14908;DHT22;7545;52.092;7.006;2022-09-28T19:11:16;11.90;99.90
14908;DHT22;7545;52.092;7.006;2022-09-28T19:13:42;11.90;99.90